sensor_id;sensor_type;location;lat;lon;timestamp;P1;durP1;ratioP1;P2;durP2;ratioP2
1306;SDS011;646;48.696;9.114;2022-12-29T00:01:31;2.40;;;1.95;;
1306;SDS011;646;48.696;9.114;2022-12-29T00:03:57;5.95;;;2.00;;
1306;SDS011;646;48.696;9.114;2022-12-29T00:06:23;2.60;;;1.60;;
1306;SDS011;646;48.696;9.114;2022-12-29T00:08:49;2.88;;;1.75;;
1306;SDS011;646;48.696;9.114;2022-12-29T00:11:15;4.30;;;2.00;;
1306;SDS011;646;48.696;9.114;2022-12-29T00:13:43;3.47;;;2.05;;
1306;SDS011;646;48.696;9.114;2022-12-29T00:16:28;1.70;;;1.60;;
1306;SDS011;646;48.696;9.114;2022-12-29T00:18:54;1.70;;;1.60;;
1306;SDS011;646;48.696;9.114;2022-12-29T00:21:20;2.10;;;1.90;;
1306;SDS011;646;48.696;9.114;2022-12-29T00:24:06;2.17;;;1.88;;
1306;SDS011;646;48.696;9.114;2022-12-29T00:27:07;1.80;;;1.70;;
1306;SDS011;646;48.696;9.114;2022-12-29T00:29:54;2.35;;;1.70;;
1306;SDS011;646;48.696;9.114;2022-12-29T00:32:39;2.13;;;2.00;;
1306;SDS011;646;48.696;9.114;2022-12-29T00:35:33;1.75;;;1.65;;
1306;SDS011;646;48.696;9.114;2022-12-29T00:38:08;2.20;;;1.88;;
1306;SDS011;646;48.696;9.114;2022-12-29T00:40:55;1.70;;;1.60;;
1306;SDS011;646;48.696;9.114;2022-12-29T00:43:47;3.42;;;1.52;;
1306;SDS011;646;48.696;9.114;2022-12-29T00:46:31;1.80;;;1.70;;
1306;SDS011;646;48.696;9.114;2022-12-29T00:49:01;1.95;;;1.85;;
1306;SDS011;646;48.696;9.114;2022-12-29T00:51:45;4.95;;;1.90;;
1306;SDS011;646;48.696;9.114;2022-12-29T00:54:11;2.10;;;1.90;;
1306;SDS011;646;48.696;9.114;2022-12-29T00:56:37;1.50;;;1.40;;
1306;SDS011;646;48.696;9.114;2022-12-29T00:59:03;1.70;;;1.60;;
1306;SDS011;646;48.696;9.114;2022-12-29T01:01:30;1.27;;;1.20;;
1306;SDS011;646;48.696;9.114;2022-12-29T01:03:56;4.27;;;2.00;;
1306;SDS011;646;48.696;9.114;2022-12-29T01:06:22;1.87;;;1.70;;
1306;SDS011;646;48.696;9.114;2022-12-29T01:08:47;2.83;;;1.90;;
1306;SDS011;646;48.696;9.114;2022-12-29T01:11:33;1.80;;;1.70;;
1306;SDS011;646;48.696;9.114;2022-12-29T01:13:59;2.23;;;1.70;;
1306;SDS011;646;48.696;9.114;2022-12-29T01:16:24;1.67;;;1.57;;
1306;SDS011;646;48.696;9.114;2022-12-29T01:18:49;1.50;;;1.40;;
1306;SDS011;646;48.696;9.114;2022-12-29T01:21:15;1.93;;;1.70;;
1306;SDS011;646;48.696;9.114;2022-12-29T01:23:40;1.50;;;1.40;;
1306;SDS011;646;48.696;9.114;2022-12-29T01:26:10;1.70;;;1.30;;
1306;SDS011;646;48.696;9.114;2022-12-29T01:28:36;2.08;;;1.45;;
1306;SDS011;646;48.696;9.114;2022-12-29T01:31:04;1.73;;;1.63;;
1306;SDS011;646;48.696;9.114;2022-12-29T01:33:33;1.80;;;1.70;;
1306;SDS011;646;48.696;9.114;2022-12-29T01:35:59;3.10;;;1.63;;
1306;SDS011;646;48.696;9.114;2022-12-29T01:38:26;1.88;;;1.77;;
1306;SDS011;646;48.696;9.114;2022-12-29T01:40:51;1.67;;;1.50;;
1306;SDS011;646;48.696;9.114;2022-12-29T01:43:17;1.60;;;1.30;;
1306;SDS011;646;48.696;9.114;2022-12-29T01:45:43;2.50;;;1.63;;
1306;SDS011;646;48.696;9.114;2022-12-29T01:48:13;1.85;;;1.75;;
1306;SDS011;646;48.696;9.114;2022-12-29T01:50:40;1.60;;;1.50;;
1306;SDS011;646;48.696;9.114;2022-12-29T01:53:22;1.77;;;1.40;;
1306;SDS011;646;48.696;9.114;2022-12-29T01:55:58;3.15;;;2.90;;
1306;SDS011;646;48.696;9.114;2022-12-29T01:58:29;1.80;;;1.70;;
1306;SDS011;646;48.696;9.114;2022-12-29T02:00:57;1.45;;;1.33;;
1306;SDS011;646;48.696;9.114;2022-12-29T02:03:24;1.60;;;1.50;;
1306;SDS011;646;48.696;9.114;2022-12-29T02:05:55;1.60;;;1.50;;
1306;SDS011;646;48.696;9.114;2022-12-29T02:08:28;1.70;;;1.60;;
1306;SDS011;646;48.696;9.114;2022-12-29T02:10:55;3.40;;;1.70;;
1306;SDS011;646;48.696;9.114;2022-12-29T02:13:24;1.50;;;1.40;;
1306;SDS011;646;48.696;9.114;2022-12-29T02:18:34;1.73;;;1.63;;
1306;SDS011;646;48.696;9.114;2022-12-29T02:26:41;1.50;;;1.40;;
1306;SDS011;646;48.696;9.114;2022-12-29T02:31:59;1.73;;;1.63;;
1306;SDS011;646;48.696;9.114;2022-12-29T02:34:48;3.35;;;1.80;;
1306;SDS011;646;48.696;9.114;2022-12-29T02:37:45;2.10;;;1.50;;
1306;SDS011;646;48.696;9.114;2022-12-29T02:40:37;1.65;;;1.55;;
1306;SDS011;646;48.696;9.114;2022-12-29T02:45:47;2.47;;;1.25;;
1306;SDS011;646;48.696;9.114;2022-12-29T02:51:03;1.50;;;1.30;;
1306;SDS011;646;48.696;9.114;2022-12-29T02:53:34;1.80;;;1.42;;
1306;SDS011;646;48.696;9.114;2022-12-29T02:56:20;1.55;;;1.45;;
1306;SDS011;646;48.696;9.114;2022-12-29T02:58:46;1.60;;;1.50;;
1306;SDS011;646;48.696;9.114;2022-12-29T03:04:39;1.40;;;1.30;;
1306;SDS011;646;48.696;9.114;2022-12-29T03:10:04;1.30;;;1.20;;
1306;SDS011;646;48.696;9.114;2022-12-29T03:12:44;1.50;;;1.40;;
1306;SDS011;646;48.696;9.114;2022-12-29T03:15:55;2.90;;;1.73;;
1306;SDS011;646;48.696;9.114;2022-12-29T03:21:24;1.70;;;1.60;;
1306;SDS011;646;48.696;9.114;2022-12-29T03:24:15;1.40;;;1.30;;
1306;SDS011;646;48.696;9.114;2022-12-29T03:26:43;2.97;;;1.80;;
1306;SDS011;646;48.696;9.114;2022-12-29T03:29:11;1.95;;;1.48;;
1306;SDS011;646;48.696;9.114;2022-12-29T03:31:39;2.72;;;1.40;;
1306;SDS011;646;48.696;9.114;2022-12-29T03:34:07;1.55;;;1.17;;
1306;SDS011;646;48.696;9.114;2022-12-29T03:36:42;1.77;;;1.40;;
1306;SDS011;646;48.696;9.114;2022-12-29T03:39:13;1.60;;;1.50;;
1306;SDS011;646;48.696;9.114;2022-12-29T03:41:42;1.40;;;1.30;;
1306;SDS011;646;48.696;9.114;2022-12-29T03:44:10;1.77;;;1.45;;
1306;SDS011;646;48.696;9.114;2022-12-29T03:46:37;1.52;;;1.42;;
1306;SDS011;646;48.696;9.114;2022-12-29T03:49:02;1.50;;;1.40;;
1306;SDS011;646;48.696;9.114;2022-12-29T03:51:28;1.57;;;1.47;;
1306;SDS011;646;48.696;9.114;2022-12-29T03:53:53;1.60;;;1.50;;
1306;SDS011;646;48.696;9.114;2022-12-29T03:56:19;2.70;;;1.50;;
1306;SDS011;646;48.696;9.114;2022-12-29T03:58:45;1.60;;;1.50;;
1306;SDS011;646;48.696;9.114;2022-12-29T04:01:10;1.47;;;1.37;;
1306;SDS011;646;48.696;9.114;2022-12-29T04:03:36;1.10;;;1.07;;
1306;SDS011;646;48.696;9.114;2022-12-29T04:06:01;1.83;;;1.40;;
1306;SDS011;646;48.696;9.114;2022-12-29T04:08:27;2.47;;;1.50;;
1306;SDS011;646;48.696;9.114;2022-12-29T04:10:52;2.13;;;1.70;;
1306;SDS011;646;48.696;9.114;2022-12-29T04:13:18;1.77;;;1.63;;
1306;SDS011;646;48.696;9.114;2022-12-29T04:15:43;1.27;;;1.17;;
1306;SDS011;646;48.696;9.114;2022-12-29T04:18:10;1.63;;;1.48;;
1306;SDS011;646;48.696;9.114;2022-12-29T04:20:36;1.50;;;1.40;;
1306;SDS011;646;48.696;9.114;2022-12-29T04:23:20;1.75;;;1.65;;
1306;SDS011;646;48.696;9.114;2022-12-29T04:25:46;1.77;;;1.40;;
1306;SDS011;646;48.696;9.114;2022-12-29T04:28:15;1.58;;;1.48;;
1306;SDS011;646;48.696;9.114;2022-12-29T04:30:41;1.98;;;1.65;;
1306;SDS011;646;48.696;9.114;2022-12-29T04:33:10;2.42;;;2.33;;
1306;SDS011;646;48.696;9.114;2022-12-29T04:35:36;1.50;;;1.40;;
1306;SDS011;646;48.696;9.114;2022-12-29T04:38:02;1.77;;;1.40;;
1306;SDS011;646;48.696;9.114;2022-12-29T04:40:28;2.08;;;1.40;;
1306;SDS011;646;48.696;9.114;2022-12-29T04:42:53;2.17;;;1.60;;
1306;SDS011;646;48.696;9.114;2022-12-29T04:45:19;1.67;;;1.57;;
1306;SDS011;646;48.696;9.114;2022-12-29T04:47:45;2.23;;;1.70;;
1306;SDS011;646;48.696;9.114;2022-12-29T04:50:10;1.87;;;1.57;;
1306;SDS011;646;48.696;9.114;2022-12-29T04:52:36;1.90;;;1.75;;
1306;SDS011;646;48.696;9.114;2022-12-29T04:55:02;2.50;;;1.70;;
1306;SDS011;646;48.696;9.114;2022-12-29T04:57:29;1.98;;;1.70;;
1306;SDS011;646;48.696;9.114;2022-12-29T04:59:54;2.03;;;1.83;;
1306;SDS011;646;48.696;9.114;2022-12-29T05:02:20;1.57;;;1.20;;
1306;SDS011;646;48.696;9.114;2022-12-29T05:04:45;1.73;;;1.63;;
1306;SDS011;646;48.696;9.114;2022-12-29T05:07:11;3.50;;;1.87;;
1306;SDS011;646;48.696;9.114;2022-12-29T05:09:37;1.90;;;1.80;;
1306;SDS011;646;48.696;9.114;2022-12-29T05:12:03;1.80;;;1.70;;
1306;SDS011;646;48.696;9.114;2022-12-29T05:14:29;2.35;;;1.80;;
1306;SDS011;646;48.696;9.114;2022-12-29T05:16:54;1.97;;;1.67;;
1306;SDS011;646;48.696;9.114;2022-12-29T05:19:20;3.03;;;1.50;;
1306;SDS011;646;48.696;9.114;2022-12-29T05:21:45;2.30;;;1.30;;
1306;SDS011;646;48.696;9.114;2022-12-29T05:24:11;1.80;;;1.70;;
1306;SDS011;646;48.696;9.114;2022-12-29T05:26:36;1.57;;;1.47;;
1306;SDS011;646;48.696;9.114;2022-12-29T05:29:03;2.20;;;1.73;;
1306;SDS011;646;48.696;9.114;2022-12-29T05:31:28;2.85;;;1.60;;
1306;SDS011;646;48.696;9.114;2022-12-29T05:33:54;1.90;;;1.80;;
1306;SDS011;646;48.696;9.114;2022-12-29T05:36:19;2.60;;;1.93;;
1306;SDS011;646;48.696;9.114;2022-12-29T05:38:45;2.20;;;1.63;;
1306;SDS011;646;48.696;9.114;2022-12-29T05:41:10;1.83;;;1.40;;
1306;SDS011;646;48.696;9.114;2022-12-29T05:43:36;1.70;;;1.60;;
1306;SDS011;646;48.696;9.114;2022-12-29T05:46:02;3.87;;;1.90;;
1306;SDS011;646;48.696;9.114;2022-12-29T05:48:28;1.50;;;1.23;;
1306;SDS011;646;48.696;9.114;2022-12-29T05:50:54;2.10;;;1.50;;
1306;SDS011;646;48.696;9.114;2022-12-29T05:53:20;3.17;;;1.50;;
1306;SDS011;646;48.696;9.114;2022-12-29T05:55:46;6.43;;;4.67;;
1306;SDS011;646;48.696;9.114;2022-12-29T05:58:12;1.63;;;1.52;;
1306;SDS011;646;48.696;9.114;2022-12-29T06:00:38;3.33;;;1.83;;
1306;SDS011;646;48.696;9.114;2022-12-29T06:03:03;1.63;;;1.27;;
1306;SDS011;646;48.696;9.114;2022-12-29T06:05:29;2.17;;;1.50;;
1306;SDS011;646;48.696;9.114;2022-12-29T06:07:55;1.63;;;1.50;;
1306;SDS011;646;48.696;9.114;2022-12-29T06:10:20;1.57;;;1.50;;
1306;SDS011;646;48.696;9.114;2022-12-29T06:12:46;2.50;;;1.83;;
1306;SDS011;646;48.696;9.114;2022-12-29T06:15:12;1.63;;;1.40;;
1306;SDS011;646;48.696;9.114;2022-12-29T06:17:38;2.85;;;1.60;;
1306;SDS011;646;48.696;9.114;2022-12-29T06:20:04;1.65;;;1.55;;
1306;SDS011;646;48.696;9.114;2022-12-29T06:22:30;2.78;;;1.50;;
1306;SDS011;646;48.696;9.114;2022-12-29T06:24:56;1.73;;;1.57;;
1306;SDS011;646;48.696;9.114;2022-12-29T06:27:21;1.73;;;1.60;;
1306;SDS011;646;48.696;9.114;2022-12-29T06:29:47;2.33;;;2.13;;
1306;SDS011;646;48.696;9.114;2022-12-29T06:32:12;1.33;;;1.20;;
1306;SDS011;646;48.696;9.114;2022-12-29T06:34:38;2.50;;;1.67;;
1306;SDS011;646;48.696;9.114;2022-12-29T06:37:04;1.47;;;1.37;;
1306;SDS011;646;48.696;9.114;2022-12-29T06:39:29;1.50;;;1.40;;
1306;SDS011;646;48.696;9.114;2022-12-29T06:41:55;2.20;;;1.97;;
1306;SDS011;646;48.696;9.114;2022-12-29T06:44:21;2.20;;;1.90;;
1306;SDS011;646;48.696;9.114;2022-12-29T06:46:47;2.13;;;1.67;;
1306;SDS011;646;48.696;9.114;2022-12-29T06:49:13;1.60;;;1.50;;
1306;SDS011;646;48.696;9.114;2022-12-29T06:51:38;2.33;;;1.33;;
1306;SDS011;646;48.696;9.114;2022-12-29T06:54:04;1.53;;;1.43;;
1306;SDS011;646;48.696;9.114;2022-12-29T06:56:30;2.07;;;1.30;;
1306;SDS011;646;48.696;9.114;2022-12-29T06:58:55;1.70;;;1.60;;
1306;SDS011;646;48.696;9.114;2022-12-29T07:01:21;2.03;;;1.80;;
1306;SDS011;646;48.696;9.114;2022-12-29T07:03:47;1.47;;;1.37;;
1306;SDS011;646;48.696;9.114;2022-12-29T07:06:12;1.90;;;1.80;;
1306;SDS011;646;48.696;9.114;2022-12-29T07:08:38;2.67;;;1.70;;
1306;SDS011;646;48.696;9.114;2022-12-29T07:11:04;1.70;;;1.60;;
1306;SDS011;646;48.696;9.114;2022-12-29T07:13:30;1.60;;;1.35;;
1306;SDS011;646;48.696;9.114;2022-12-29T07:15:56;1.27;;;1.17;;
1306;SDS011;646;48.696;9.114;2022-12-29T07:18:21;1.70;;;1.60;;
1306;SDS011;646;48.696;9.114;2022-12-29T07:20:47;1.93;;;1.50;;
1306;SDS011;646;48.696;9.114;2022-12-29T07:23:13;2.00;;;1.63;;
1306;SDS011;646;48.696;9.114;2022-12-29T07:25:39;1.70;;;1.40;;
1306;SDS011;646;48.696;9.114;2022-12-29T07:28:06;1.50;;;1.40;;
1306;SDS011;646;48.696;9.114;2022-12-29T07:30:32;3.80;;;1.67;;
1306;SDS011;646;48.696;9.114;2022-12-29T07:32:57;2.00;;;1.90;;
1306;SDS011;646;48.696;9.114;2022-12-29T07:35:23;1.40;;;1.30;;
1306;SDS011;646;48.696;9.114;2022-12-29T07:37:49;2.10;;;1.60;;
1306;SDS011;646;48.696;9.114;2022-12-29T07:40:15;1.63;;;1.50;;
1306;SDS011;646;48.696;9.114;2022-12-29T07:42:40;1.63;;;1.53;;
1306;SDS011;646;48.696;9.114;2022-12-29T07:45:06;2.60;;;1.77;;
1306;SDS011;646;48.696;9.114;2022-12-29T07:47:34;1.70;;;1.50;;
1306;SDS011;646;48.696;9.114;2022-12-29T07:49:59;2.17;;;1.43;;
1306;SDS011;646;48.696;9.114;2022-12-29T07:52:25;1.83;;;1.73;;
1306;SDS011;646;48.696;9.114;2022-12-29T07:54:50;1.60;;;1.50;;
1306;SDS011;646;48.696;9.114;2022-12-29T07:57:15;2.00;;;1.40;;
1306;SDS011;646;48.696;9.114;2022-12-29T07:59:41;3.43;;;1.53;;
1306;SDS011;646;48.696;9.114;2022-12-29T08:02:09;2.50;;;1.70;;
1306;SDS011;646;48.696;9.114;2022-12-29T08:04:35;1.50;;;1.40;;
1306;SDS011;646;48.696;9.114;2022-12-29T08:07:01;2.27;;;1.90;;
1306;SDS011;646;48.696;9.114;2022-12-29T08:09:26;5.80;;;5.10;;
1306;SDS011;646;48.696;9.114;2022-12-29T08:11:53;2.50;;;2.40;;
1306;SDS011;646;48.696;9.114;2022-12-29T08:14:19;2.65;;;1.38;;
1306;SDS011;646;48.696;9.114;2022-12-29T08:16:44;3.70;;;1.40;;
1306;SDS011;646;48.696;9.114;2022-12-29T08:19:10;2.20;;;1.90;;
1306;SDS011;646;48.696;9.114;2022-12-29T08:21:36;1.92;;;1.83;;
1306;SDS011;646;48.696;9.114;2022-12-29T08:24:02;2.07;;;1.70;;
1306;SDS011;646;48.696;9.114;2022-12-29T08:26:28;1.70;;;1.60;;
1306;SDS011;646;48.696;9.114;2022-12-29T08:28:53;2.33;;;2.10;;
1306;SDS011;646;48.696;9.114;2022-12-29T08:31:20;2.95;;;1.95;;
1306;SDS011;646;48.696;9.114;2022-12-29T08:33:46;2.70;;;1.97;;
1306;SDS011;646;48.696;9.114;2022-12-29T08:36:11;2.70;;;2.50;;
1306;SDS011;646;48.696;9.114;2022-12-29T08:38:37;2.50;;;2.30;;
1306;SDS011;646;48.696;9.114;2022-12-29T08:41:02;3.67;;;3.27;;
1306;SDS011;646;48.696;9.114;2022-12-29T08:43:28;4.40;;;4.00;;
1306;SDS011;646;48.696;9.114;2022-12-29T08:45:54;2.50;;;2.40;;
1306;SDS011;646;48.696;9.114;2022-12-29T08:48:19;4.03;;;3.67;;
1306;SDS011;646;48.696;9.114;2022-12-29T08:50:47;2.42;;;2.22;;
1306;SDS011;646;48.696;9.114;2022-12-29T08:53:13;3.38;;;3.08;;
1306;SDS011;646;48.696;9.114;2022-12-29T08:55:39;4.07;;;3.50;;
1306;SDS011;646;48.696;9.114;2022-12-29T08:58:04;5.50;;;5.00;;
1306;SDS011;646;48.696;9.114;2022-12-29T09:00:30;4.20;;;3.80;;
1306;SDS011;646;48.696;9.114;2022-12-29T09:02:55;4.13;;;3.83;;
1306;SDS011;646;48.696;9.114;2022-12-29T09:05:21;3.10;;;2.90;;
1306;SDS011;646;48.696;9.114;2022-12-29T09:07:46;2.03;;;1.93;;
1306;SDS011;646;48.696;9.114;2022-12-29T09:10:12;11.37;;;7.30;;
1306;SDS011;646;48.696;9.114;2022-12-29T09:12:37;3.63;;;2.67;;
1306;SDS011;646;48.696;9.114;2022-12-29T09:15:03;2.10;;;1.90;;
1306;SDS011;646;48.696;9.114;2022-12-29T09:17:30;2.83;;;2.13;;
1306;SDS011;646;48.696;9.114;2022-12-29T09:20:11;3.92;;;1.70;;
1306;SDS011;646;48.696;9.114;2022-12-29T09:22:44;1.92;;;1.65;;
1306;SDS011;646;48.696;9.114;2022-12-29T09:25:10;4.53;;;1.80;;
1306;SDS011;646;48.696;9.114;2022-12-29T09:27:36;1.73;;;1.48;;
1306;SDS011;646;48.696;9.114;2022-12-29T09:30:02;1.83;;;1.73;;
1306;SDS011;646;48.696;9.114;2022-12-29T09:32:30;1.70;;;1.40;;
1306;SDS011;646;48.696;9.114;2022-12-29T09:34:56;1.50;;;1.40;;
1306;SDS011;646;48.696;9.114;2022-12-29T09:37:21;2.10;;;1.60;;
1306;SDS011;646;48.696;9.114;2022-12-29T09:39:47;2.73;;;2.13;;
1306;SDS011;646;48.696;9.114;2022-12-29T09:42:14;1.40;;;1.30;;
1306;SDS011;646;48.696;9.114;2022-12-29T09:45:08;1.70;;;1.60;;
1306;SDS011;646;48.696;9.114;2022-12-29T09:47:38;2.10;;;1.90;;
1306;SDS011;646;48.696;9.114;2022-12-29T09:50:08;2.78;;;1.58;;
1306;SDS011;646;48.696;9.114;2022-12-29T09:52:46;1.70;;;1.60;;
1306;SDS011;646;48.696;9.114;2022-12-29T09:55:21;2.25;;;2.05;;
1306;SDS011;646;48.696;9.114;2022-12-29T09:58:01;1.87;;;1.70;;
1306;SDS011;646;48.696;9.114;2022-12-29T10:00:46;3.63;;;1.90;;
1306;SDS011;646;48.696;9.114;2022-12-29T10:03:20;2.17;;;2.03;;
1306;SDS011;646;48.696;9.114;2022-12-29T10:14:18;1.93;;;1.50;;
1306;SDS011;646;48.696;9.114;2022-12-29T10:19:56;3.60;;;2.47;;
1306;SDS011;646;48.696;9.114;2022-12-29T10:22:46;2.40;;;2.20;;
1306;SDS011;646;48.696;9.114;2022-12-29T10:25:18;1.97;;;1.80;;
1306;SDS011;646;48.696;9.114;2022-12-29T10:27:48;2.20;;;2.00;;
1306;SDS011;646;48.696;9.114;2022-12-29T10:30:15;2.83;;;2.00;;
1306;SDS011;646;48.696;9.114;2022-12-29T10:32:55;2.40;;;1.90;;
1306;SDS011;646;48.696;9.114;2022-12-29T10:35:24;2.30;;;2.10;;
1306;SDS011;646;48.696;9.114;2022-12-29T10:40:42;2.93;;;1.70;;
1306;SDS011;646;48.696;9.114;2022-12-29T10:43:27;1.87;;;1.77;;
1306;SDS011;646;48.696;9.114;2022-12-29T10:45:55;2.63;;;1.53;;
1306;SDS011;646;48.696;9.114;2022-12-29T10:48:33;1.60;;;1.50;;
1306;SDS011;646;48.696;9.114;2022-12-29T10:51:01;2.60;;;1.70;;
1306;SDS011;646;48.696;9.114;2022-12-29T10:54:15;3.17;;;2.13;;
1306;SDS011;646;48.696;9.114;2022-12-29T10:56:35;2.40;;;1.83;;
1306;SDS011;646;48.696;9.114;2022-12-29T11:01:51;2.20;;;2.00;;
1306;SDS011;646;48.696;9.114;2022-12-29T11:04:37;1.60;;;1.50;;
1306;SDS011;646;48.696;9.114;2022-12-29T11:07:11;2.90;;;1.80;;
1306;SDS011;646;48.696;9.114;2022-12-29T11:09:40;1.60;;;1.50;;
1306;SDS011;646;48.696;9.114;2022-12-29T11:12:27;2.20;;;2.00;;
1306;SDS011;646;48.696;9.114;2022-12-29T11:15:00;1.80;;;1.60;;
1306;SDS011;646;48.696;9.114;2022-12-29T11:17:43;2.90;;;1.63;;
1306;SDS011;646;48.696;9.114;2022-12-29T11:20:27;2.10;;;2.00;;
1306;SDS011;646;48.696;9.114;2022-12-29T11:23:02;5.07;;;1.83;;
1306;SDS011;646;48.696;9.114;2022-12-29T11:25:45;1.80;;;1.70;;
1306;SDS011;646;48.696;9.114;2022-12-29T11:28:14;1.80;;;1.60;;
1306;SDS011;646;48.696;9.114;2022-12-29T11:30:41;1.80;;;1.70;;
1306;SDS011;646;48.696;9.114;2022-12-29T11:33:07;1.90;;;1.80;;
1306;SDS011;646;48.696;9.114;2022-12-29T11:35:40;2.53;;;1.70;;
1306;SDS011;646;48.696;9.114;2022-12-29T11:38:18;4.53;;;1.80;;
1306;SDS011;646;48.696;9.114;2022-12-29T11:40:46;1.60;;;1.50;;
1306;SDS011;646;48.696;9.114;2022-12-29T11:43:46;1.97;;;1.87;;
1306;SDS011;646;48.696;9.114;2022-12-29T11:46:18;2.10;;;2.00;;
1306;SDS011;646;48.696;9.114;2022-12-29T11:48:48;1.50;;;1.40;;
1306;SDS011;646;48.696;9.114;2022-12-29T11:51:21;1.60;;;1.50;;
1306;SDS011;646;48.696;9.114;2022-12-29T11:54:02;1.47;;;1.37;;
1306;SDS011;646;48.696;9.114;2022-12-29T11:56:33;1.97;;;1.50;;
1306;SDS011;646;48.696;9.114;2022-12-29T12:02:30;1.27;;;1.20;;
1306;SDS011;646;48.696;9.114;2022-12-29T12:04:56;1.57;;;1.47;;
1306;SDS011;646;48.696;9.114;2022-12-29T12:07:49;3.40;;;3.10;;
1306;SDS011;646;48.696;9.114;2022-12-29T12:10:27;2.10;;;1.90;;
1306;SDS011;646;48.696;9.114;2022-12-29T12:13:02;2.17;;;1.97;;
1306;SDS011;646;48.696;9.114;2022-12-29T12:15:52;2.17;;;1.97;;
1306;SDS011;646;48.696;9.114;2022-12-29T12:18:27;2.90;;;2.70;;
1306;SDS011;646;48.696;9.114;2022-12-29T12:21:45;2.77;;;1.90;;
1306;SDS011;646;48.696;9.114;2022-12-29T12:24:18;2.53;;;2.33;;
1306;SDS011;646;48.696;9.114;2022-12-29T12:29:41;1.87;;;1.73;;
1306;SDS011;646;48.696;9.114;2022-12-29T12:32:33;1.77;;;1.67;;
1306;SDS011;646;48.696;9.114;2022-12-29T12:35:15;2.67;;;2.20;;
1306;SDS011;646;48.696;9.114;2022-12-29T12:46:26;3.50;;;2.28;;
1306;SDS011;646;48.696;9.114;2022-12-29T12:49:11;2.53;;;2.00;;
1306;SDS011;646;48.696;9.114;2022-12-29T13:00:01;2.60;;;1.90;;
1306;SDS011;646;48.696;9.114;2022-12-29T13:21:45;1.80;;;1.70;;
1306;SDS011;646;48.696;9.114;2022-12-29T13:24:25;3.00;;;1.77;;
1306;SDS011;646;48.696;9.114;2022-12-29T13:27:12;1.70;;;1.60;;
1306;SDS011;646;48.696;9.114;2022-12-29T13:35:42;1.93;;;1.80;;
1306;SDS011;646;48.696;9.114;2022-12-29T13:38:26;1.80;;;1.70;;
1306;SDS011;646;48.696;9.114;2022-12-29T13:41:01;1.80;;;1.70;;
1306;SDS011;646;48.696;9.114;2022-12-29T13:43:39;1.97;;;1.87;;
1306;SDS011;646;48.696;9.114;2022-12-29T13:49:06;2.00;;;1.90;;
1306;SDS011;646;48.696;9.114;2022-12-29T13:51:43;2.43;;;2.23;;
1306;SDS011;646;48.696;9.114;2022-12-29T13:54:18;1.97;;;1.77;;
1306;SDS011;646;48.696;9.114;2022-12-29T13:56:49;2.47;;;2.27;;
1306;SDS011;646;48.696;9.114;2022-12-29T13:59:30;1.63;;;1.53;;
1306;SDS011;646;48.696;9.114;2022-12-29T14:05:04;2.90;;;2.70;;
1306;SDS011;646;48.696;9.114;2022-12-29T14:07:59;2.57;;;2.37;;
1306;SDS011;646;48.696;9.114;2022-12-29T14:10:34;5.40;;;4.90;;
1306;SDS011;646;48.696;9.114;2022-12-29T14:13:03;2.33;;;2.13;;
1306;SDS011;646;48.696;9.114;2022-12-29T14:15:37;2.50;;;2.30;;
1306;SDS011;646;48.696;9.114;2022-12-29T14:18:14;3.00;;;2.70;;
1306;SDS011;646;48.696;9.114;2022-12-29T14:20:49;2.70;;;2.47;;
1306;SDS011;646;48.696;9.114;2022-12-29T14:23:29;2.83;;;1.80;;
1306;SDS011;646;48.696;9.114;2022-12-29T14:28:43;2.13;;;2.00;;
1306;SDS011;646;48.696;9.114;2022-12-29T14:36:38;2.17;;;2.07;;
1306;SDS011;646;48.696;9.114;2022-12-29T14:39:28;3.00;;;2.33;;
1306;SDS011;646;48.696;9.114;2022-12-29T14:42:12;3.80;;;2.97;;
1306;SDS011;646;48.696;9.114;2022-12-29T14:44:52;2.60;;;2.40;;
1306;SDS011;646;48.696;9.114;2022-12-29T14:47:32;3.57;;;1.80;;
1306;SDS011;646;48.696;9.114;2022-12-29T14:50:05;2.27;;;1.77;;
1306;SDS011;646;48.696;9.114;2022-12-29T14:52:53;2.20;;;2.00;;
1306;SDS011;646;48.696;9.114;2022-12-29T14:55:29;1.83;;;1.73;;
1306;SDS011;646;48.696;9.114;2022-12-29T14:58:06;7.00;;;2.40;;
1306;SDS011;646;48.696;9.114;2022-12-29T15:00:57;2.07;;;1.87;;
1306;SDS011;646;48.696;9.114;2022-12-29T15:03:36;2.37;;;2.17;;
1306;SDS011;646;48.696;9.114;2022-12-29T15:06:11;2.70;;;1.90;;
1306;SDS011;646;48.696;9.114;2022-12-29T15:08:39;2.47;;;2.00;;
1306;SDS011;646;48.696;9.114;2022-12-29T15:11:24;2.30;;;1.83;;
1306;SDS011;646;48.696;9.114;2022-12-29T15:14:30;2.42;;;1.98;;
1306;SDS011;646;48.696;9.114;2022-12-29T15:17:21;3.00;;;2.07;;
1306;SDS011;646;48.696;9.114;2022-12-29T15:19:51;2.80;;;2.60;;
1306;SDS011;646;48.696;9.114;2022-12-29T15:22:18;2.30;;;2.10;;
1306;SDS011;646;48.696;9.114;2022-12-29T15:24:44;2.57;;;2.37;;
1306;SDS011;646;48.696;9.114;2022-12-29T15:27:12;3.37;;;1.97;;
1306;SDS011;646;48.696;9.114;2022-12-29T15:29:41;2.35;;;2.00;;
1306;SDS011;646;48.696;9.114;2022-12-29T15:32:21;3.22;;;2.20;;
1306;SDS011;646;48.696;9.114;2022-12-29T15:34:50;2.97;;;2.63;;
1306;SDS011;646;48.696;9.114;2022-12-29T15:37:22;2.10;;;2.00;;
1306;SDS011;646;48.696;9.114;2022-12-29T15:39:51;2.40;;;2.20;;
1306;SDS011;646;48.696;9.114;2022-12-29T15:44:58;2.27;;;2.17;;
1306;SDS011;646;48.696;9.114;2022-12-29T15:47:29;3.90;;;1.87;;
1306;SDS011;646;48.696;9.114;2022-12-29T15:50:05;2.30;;;2.10;;
1306;SDS011;646;48.696;9.114;2022-12-29T15:52:37;3.55;;;2.60;;
1306;SDS011;646;48.696;9.114;2022-12-29T15:55:04;3.38;;;2.25;;
1306;SDS011;646;48.696;9.114;2022-12-29T15:57:31;3.10;;;2.80;;
1306;SDS011;646;48.696;9.114;2022-12-29T16:00:23;3.20;;;2.90;;
1306;SDS011;646;48.696;9.114;2022-12-29T16:02:50;3.67;;;2.20;;
1306;SDS011;646;48.696;9.114;2022-12-29T16:05:18;2.17;;;2.05;;
1306;SDS011;646;48.696;9.114;2022-12-29T16:07:54;4.00;;;3.50;;
1306;SDS011;646;48.696;9.114;2022-12-29T16:10:24;3.33;;;2.75;;
1306;SDS011;646;48.696;9.114;2022-12-29T16:13:20;3.13;;;2.83;;
1306;SDS011;646;48.696;9.114;2022-12-29T16:16:08;5.43;;;2.50;;
1306;SDS011;646;48.696;9.114;2022-12-29T16:18:43;2.60;;;2.38;;
1306;SDS011;646;48.696;9.114;2022-12-29T16:21:16;3.10;;;2.57;;
1306;SDS011;646;48.696;9.114;2022-12-29T16:23:49;2.50;;;2.17;;
1306;SDS011;646;48.696;9.114;2022-12-29T16:26:17;1.75;;;1.65;;
1306;SDS011;646;48.696;9.114;2022-12-29T16:28:46;2.22;;;2.00;;
1306;SDS011;646;48.696;9.114;2022-12-29T16:31:24;1.85;;;1.75;;
1306;SDS011;646;48.696;9.114;2022-12-29T16:34:09;2.10;;;1.90;;
1306;SDS011;646;48.696;9.114;2022-12-29T16:36:56;2.10;;;1.60;;
1306;SDS011;646;48.696;9.114;2022-12-29T16:39:27;2.53;;;2.33;;
1306;SDS011;646;48.696;9.114;2022-12-29T16:41:54;2.47;;;2.28;;
1306;SDS011;646;48.696;9.114;2022-12-29T16:44:21;10.63;;;7.18;;
1306;SDS011;646;48.696;9.114;2022-12-29T16:49:25;9.40;;;6.47;;
1306;SDS011;646;48.696;9.114;2022-12-29T16:51:52;5.10;;;4.38;;
1306;SDS011;646;48.696;9.114;2022-12-29T16:54:20;15.63;;;12.27;;
1306;SDS011;646;48.696;9.114;2022-12-29T16:56:48;11.15;;;8.50;;
1306;SDS011;646;48.696;9.114;2022-12-29T16:59:24;7.15;;;6.45;;
1306;SDS011;646;48.696;9.114;2022-12-29T17:01:51;3.90;;;3.50;;
1306;SDS011;646;48.696;9.114;2022-12-29T17:04:16;5.80;;;3.80;;
1306;SDS011;646;48.696;9.114;2022-12-29T17:06:42;4.60;;;2.57;;
1306;SDS011;646;48.696;9.114;2022-12-29T17:11:47;2.22;;;2.05;;
1306;SDS011;646;48.696;9.114;2022-12-29T17:14:31;1.80;;;1.70;;
1306;SDS011;646;48.696;9.114;2022-12-29T17:16:59;1.90;;;1.70;;
1306;SDS011;646;48.696;9.114;2022-12-29T17:19:32;2.05;;;1.90;;
1306;SDS011;646;48.696;9.114;2022-12-29T17:21:59;1.90;;;1.77;;
1306;SDS011;646;48.696;9.114;2022-12-29T17:24:26;3.35;;;2.70;;
1306;SDS011;646;48.696;9.114;2022-12-29T17:26:53;3.43;;;3.23;;
1306;SDS011;646;48.696;9.114;2022-12-29T17:31:51;2.95;;;2.70;;
1306;SDS011;646;48.696;9.114;2022-12-29T17:34:18;2.10;;;2.00;;
1306;SDS011;646;48.696;9.114;2022-12-29T17:36:44;2.73;;;2.53;;
1306;SDS011;646;48.696;9.114;2022-12-29T17:39:09;2.47;;;2.20;;
1306;SDS011;646;48.696;9.114;2022-12-29T17:41:35;3.30;;;2.73;;
1306;SDS011;646;48.696;9.114;2022-12-29T17:44:02;6.60;;;4.20;;
1306;SDS011;646;48.696;9.114;2022-12-29T17:46:28;4.63;;;4.15;;
1306;SDS011;646;48.696;9.114;2022-12-29T17:48:54;4.43;;;4.13;;
1306;SDS011;646;48.696;9.114;2022-12-29T17:51:20;4.27;;;3.40;;